Time;durP1;ratioP1;P1;durP2;ratioP2;P2;SDS_P1;SDS_P2;PMS_P1;PMS_P2;Temp;Humidity;BMP_temperature;BMP_pressure;BME280_temperature;BME280_humidity;BME280_pressure;Samples;Min_cycle;Max_cycle;Signal;HPM_P1;HPM_P2
2022/06/18 00:02:03;;;;;;;3.20;2.47;;;;;;;;;;5058152;28;20513;-66
2022/06/18 00:04:30;;;;;;;2.83;2.33;;;;;;;;;;5068823;28;20437;-66
2022/06/18 00:06:58;;;;;;;2.67;2.47;;;;;;;;;;5067419;28;20429;-66
2022/06/18 00:09:27;;;;;;;3.13;2.55;;;;;;;;;;5067631;28;20516;-66
2022/06/18 00:14:42;;;;;;;3.30;3.00;;;;;;;;;;5062474;28;20488;-67
2022/06/18 00:17:12;;;;;;;3.10;2.80;;;;;;;;;;5061250;28;20433;-67
2022/06/18 00:19:39;;;;;;;3.10;2.60;;;;;;;;;;5064015;28;20427;-66
2022/06/18 00:22:06;;;;;;;3.65;3.35;;;;;;;;;;5061107;28;20864;-67
2022/06/18 00:24:33;;;;;;;4.40;3.10;;;;;;;;;;5070998;28;20434;-67
2022/06/18 00:27:01;;;;;;;3.20;2.90;;;;;;;;;;5059984;28;20431;-66
2022/06/18 00:29:28;;;;;;;3.80;3.40;;;;;;;;;;5066364;28;20508;-66
2022/06/18 00:31:56;;;;;;;3.05;2.80;;;;;;;;;;5059337;28;20952;-66
2022/06/18 00:34:23;;;;;;;3.13;2.80;;;;;;;;;;5059523;28;20427;-66
2022/06/18 00:36:51;;;;;;;3.40;2.85;;;;;;;;;;5061298;28;20427;-66
2022/06/18 00:39:18;;;;;;;2.90;2.70;;;;;;;;;;5068759;28;20485;-66
2022/06/18 00:41:46;;;;;;;4.97;2.60;;;;;;;;;;5058589;28;20427;-63
2022/06/18 00:44:19;;;;;;;3.65;2.80;;;;;;;;;;5068207;28;20803;-66
2022/06/18 00:46:51;;;;;;;3.10;2.90;;;;;;;;;;5057922;28;20424;-66
2022/06/18 00:49:24;;;;;;;2.80;2.60;;;;;;;;;;5061647;28;20897;-66
2022/06/18 00:51:54;;;;;;;2.70;2.50;;;;;;;;;;5062609;28;20442;-65
2022/06/18 00:54:24;;;;;;;3.00;2.57;;;;;;;;;;5079684;28;20468;-67
2022/06/18 00:56:54;;;;;;;2.47;2.28;;;;;;;;;;5059485;28;20443;-67
2022/06/18 00:59:25;;;;;;;2.93;2.47;;;;;;;;;;5073057;28;20436;-66
2022/06/18 01:01:53;;;;;;;2.90;2.40;;;;;;;;;;5076094;28;20436;-67
2022/06/18 01:04:23;;;;;;;2.53;2.30;;;;;;;;;;5076475;28;20427;-67
2022/06/18 01:06:51;;;;;;;3.30;2.20;;;;;;;;;;5066697;28;20930;-67
2022/06/18 01:09:19;;;;;;;2.67;2.47;;;;;;;;;;5075917;28;20459;-67
2022/06/18 01:11:47;;;;;;;2.90;2.20;;;;;;;;;;5071762;28;20807;-67
2022/06/18 01:14:17;;;;;;;2.40;2.20;;;;;;;;;;5062316;28;20442;-68
2022/06/18 01:16:44;;;;;;;2.45;2.25;;;;;;;;;;5061710;28;20432;-66
2022/06/18 01:19:19;;;;;;;3.30;2.58;;;;;;;;;;5062024;28;20431;-67
2022/06/18 01:21:51;;;;;;;3.67;2.40;;;;;;;;;;5064009;28;20493;-67
2022/06/18 01:24:21;;;;;;;2.70;2.50;;;;;;;;;;5071217;28;20435;-69
2022/06/18 01:26:49;;;;;;;3.05;2.50;;;;;;;;;;5064468;28;20499;-67
2022/06/18 01:29:16;;;;;;;2.70;2.45;;;;;;;;;;5071259;28;20435;-67
2022/06/18 01:31:45;;;;;;;2.97;2.50;;;;;;;;;;5069586;28;20428;-67
2022/06/18 01:34:12;;;;;;;3.10;2.20;;;;;;;;;;5061981;28;20441;-68
2022/06/18 01:36:39;;;;;;;2.25;2.05;;;;;;;;;;5062890;28;20481;-67
2022/06/18 01:39:08;;;;;;;2.40;2.20;;;;;;;;;;5067680;28;20440;-67
2022/06/18 01:41:51;;;;;;;2.88;2.60;;;;;;;;;;5057395;28;20431;-67
2022/06/18 01:44:20;;;;;;;2.70;2.50;;;;;;;;;;5054824;28;20597;-66
2022/06/18 01:46:49;;;;;;;2.50;2.30;;;;;;;;;;5061560;28;21071;-65
2022/06/18 01:49:18;;;;;;;2.70;2.40;;;;;;;;;;5067682;28;20448;-66
2022/06/18 01:51:47;;;;;;;3.28;2.47;;;;;;;;;;5070888;28;20527;-65
2022/06/18 01:54:18;;;;;;;2.70;2.50;;;;;;;;;;5064951;28;20455;-66
2022/06/18 01:56:47;;;;;;;4.75;2.50;;;;;;;;;;5062850;28;20449;-67
2022/06/18 01:59:16;;;;;;;2.70;2.50;;;;;;;;;;5057205;28;20431;-70
2022/06/18 02:01:45;;;;;;;3.03;2.40;;;;;;;;;;5062071;28;20491;-68
2022/06/18 02:04:14;;;;;;;2.92;2.33;;;;;;;;;;5061082;28;20736;-67
2022/06/18 02:06:41;;;;;;;2.70;2.50;;;;;;;;;;5069546;28;20421;-66
2022/06/18 02:09:10;;;;;;;3.28;2.50;;;;;;;;;;5075421;28;20428;-70
2022/06/18 02:11:37;;;;;;;2.90;2.60;;;;;;;;;;5070724;28;20427;-66
2022/06/18 02:14:07;;;;;;;2.70;2.50;;;;;;;;;;5060724;28;21033;-66
2022/06/18 02:16:36;;;;;;;3.30;2.60;;;;;;;;;;5062237;28;20435;-67
2022/06/18 02:19:04;;;;;;;3.50;2.65;;;;;;;;;;5062860;28;20427;-67
2022/06/18 02:21:33;;;;;;;3.22;2.60;;;;;;;;;;5070031;28;20421;-67
2022/06/18 02:24:00;;;;;;;3.17;2.85;;;;;;;;;;5067919;28;20443;-66
2022/06/18 02:26:29;;;;;;;3.38;2.50;;;;;;;;;;5068755;28;21087;-67
2022/06/18 02:28:56;;;;;;;3.15;2.42;;;;;;;;;;5067658;28;21015;-66
2022/06/18 02:31:32;;;;;;;3.03;2.67;;;;;;;;;;5068677;28;20446;-66
2022/06/18 02:34:02;;;;;;;2.60;2.40;;;;;;;;;;5064091;28;20467;-66
2022/06/18 02:36:31;;;;;;;3.38;2.63;;;;;;;;;;5074882;28;20453;-66
2022/06/18 02:39:01;;;;;;;2.50;2.30;;;;;;;;;;5062828;28;20443;-64
2022/06/18 02:41:28;;;;;;;3.08;2.60;;;;;;;;;;5066527;28;20480;-65
2022/06/18 02:43:55;;;;;;;4.45;2.45;;;;;;;;;;5071994;28;20438;-65
2022/06/18 02:46:24;;;;;;;3.40;2.75;;;;;;;;;;5060601;28;20459;-65
2022/06/18 02:48:52;;;;;;;2.80;2.60;;;;;;;;;;5072944;28;20500;-66
2022/06/18 02:51:20;;;;;;;3.03;2.83;;;;;;;;;;5067767;28;20791;-66
2022/06/18 02:53:47;;;;;;;3.05;2.75;;;;;;;;;;5060900;28;20920;-65
2022/06/18 02:56:15;;;;;;;2.50;2.30;;;;;;;;;;5069683;28;20427;-65
2022/06/18 02:58:44;;;;;;;3.13;2.60;;;;;;;;;;5057970;28;20901;-66
2022/06/18 03:01:13;;;;;;;2.40;2.20;;;;;;;;;;5061099;28;20443;-64
2022/06/18 03:03:42;;;;;;;2.50;2.30;;;;;;;;;;5062536;28;20503;-68
2022/06/18 03:06:11;;;;;;;3.30;2.90;;;;;;;;;;5069915;28;20754;-68
2022/06/18 03:08:38;;;;;;;2.60;2.40;;;;;;;;;;5070846;28;20461;-67
2022/06/18 03:13:51;;;;;;;2.85;2.50;;;;;;;;;;5058958;28;20734;-68
2022/06/18 03:16:21;;;;;;;2.70;2.50;;;;;;;;;;5064425;28;20934;-68
2022/06/18 03:18:48;;;;;;;3.17;2.53;;;;;;;;;;5074094;28;20430;-68
2022/06/18 03:21:20;;;;;;;2.67;2.47;;;;;;;;;;5069456;28;20444;-69
2022/06/18 03:23:48;;;;;;;2.20;1.90;;;;;;;;;;5064708;28;20450;-69
2022/06/18 03:26:16;;;;;;;4.30;2.40;;;;;;;;;;5069175;28;20476;-67
2022/06/18 03:28:44;;;;;;;2.92;2.60;;;;;;;;;;5063585;28;20435;-67
2022/06/18 03:31:11;;;;;;;2.65;2.30;;;;;;;;;;5062303;28;20441;-67
2022/06/18 03:33:39;;;;;;;2.60;2.40;;;;;;;;;;5066967;28;20426;-69
2022/06/18 03:36:06;;;;;;;2.90;2.50;;;;;;;;;;5056957;28;20534;-69
2022/06/18 03:38:35;;;;;;;2.38;2.20;;;;;;;;;;5068557;28;20430;-69
2022/06/18 03:41:02;;;;;;;2.50;2.30;;;;;;;;;;5060109;28;20431;-69
2022/06/18 03:43:30;;;;;;;3.78;2.45;;;;;;;;;;5057099;28;20431;-68
2022/06/18 03:46:00;;;;;;;2.50;2.30;;;;;;;;;;5058219;28;20439;-68
2022/06/18 03:48:28;;;;;;;3.15;2.53;;;;;;;;;;5070058;22;20461;-71
2022/06/18 03:50:56;;;;;;;2.60;2.40;;;;;;;;;;5052968;28;20429;-71
2022/06/18 03:53:23;;;;;;;3.50;2.60;;;;;;;;;;5052763;28;20429;-71
2022/06/18 03:55:52;;;;;;;2.42;2.22;;;;;;;;;;5054019;28;20413;-71
2022/06/18 03:58:19;;;;;;;4.78;2.30;;;;;;;;;;5066659;28;20435;-73
2022/06/18 04:00:46;;;;;;;2.50;2.30;;;;;;;;;;5048347;28;20431;-72
2022/06/18 04:03:13;;;;;;;2.58;2.30;;;;;;;;;;5054067;28;20996;-73
2022/06/18 04:05:41;;;;;;;3.30;2.40;;;;;;;;;;5068641;28;20530;-72
2022/06/18 04:08:09;;;;;;;3.90;2.50;;;;;;;;;;5049838;28;20429;-72
2022/06/18 04:10:36;;;;;;;3.08;2.25;;;;;;;;;;5059199;28;20442;-72
2022/06/18 04:13:04;;;;;;;2.70;2.30;;;;;;;;;;5056376;28;20475;-71
2022/06/18 04:15:31;;;;;;;2.50;2.30;;;;;;;;;;5053177;28;20439;-73
2022/06/18 04:17:58;;;;;;;3.53;2.58;;;;;;;;;;5057903;28;20427;-73
2022/06/18 04:20:27;;;;;;;5.77;2.53;;;;;;;;;;5041955;28;20532;-72
2022/06/18 04:22:54;;;;;;;3.30;2.00;;;;;;;;;;5045076;28;20973;-73
2022/06/18 04:25:22;;;;;;;2.58;2.33;;;;;;;;;;5064172;28;20421;-72
2022/06/18 04:27:49;;;;;;;2.60;2.40;;;;;;;;;;5060055;28;20429;-73
2022/06/18 04:30:19;;;;;;;3.15;2.40;;;;;;;;;;5049481;28;21332;-68
2022/06/18 04:32:46;;;;;;;3.72;2.50;;;;;;;;;;5051616;28;20436;-67
2022/06/18 04:35:14;;;;;;;4.15;2.60;;;;;;;;;;5056676;28;20421;-65
2022/06/18 04:37:44;;;;;;;4.00;2.40;;;;;;;;;;5055578;28;20419;-66
2022/06/18 04:40:13;;;;;;;4.20;2.80;;;;;;;;;;5053620;28;20436;-66
2022/06/18 04:42:40;;;;;;;2.67;2.00;;;;;;;;;;5049215;28;20413;-69
2022/06/18 04:45:08;;;;;;;2.90;2.33;;;;;;;;;;5045441;28;21122;-67
2022/06/18 04:47:36;;;;;;;2.63;2.00;;;;;;;;;;5046808;28;20444;-68
2022/06/18 04:50:03;;;;;;;2.60;2.40;;;;;;;;;;5040118;28;20438;-68
2022/06/18 04:52:30;;;;;;;2.53;2.30;;;;;;;;;;5055999;28;20938;-68
2022/06/18 04:54:58;;;;;;;2.53;2.33;;;;;;;;;;5049098;28;20433;-67
2022/06/18 04:57:25;;;;;;;3.93;2.17;;;;;;;;;;5051312;28;20427;-70
2022/06/18 04:59:52;;;;;;;3.00;2.60;;;;;;;;;;5049059;28;20455;-69
2022/06/18 05:02:21;;;;;;;3.40;2.40;;;;;;;;;;5050767;28;20438;-69
2022/06/18 05:04:49;;;;;;;2.42;2.10;;;;;;;;;;5048800;28;20441;-70
2022/06/18 05:07:16;;;;;;;2.42;2.13;;;;;;;;;;5043880;28;20431;-71
2022/06/18 05:09:44;;;;;;;2.20;2.00;;;;;;;;;;5037298;28;20449;-71
2022/06/18 05:12:12;;;;;;;3.30;2.10;;;;;;;;;;5041453;28;20945;-72
2022/06/18 05:14:39;;;;;;;2.47;2.10;;;;;;;;;;5035467;28;20439;-74
2022/06/18 05:17:09;;;;;;;2.53;2.33;;;;;;;;;;5035817;28;20435;-68
2022/06/18 05:19:36;;;;;;;3.73;2.43;;;;;;;;;;5046586;28;20433;-69
2022/06/18 05:22:05;;;;;;;2.60;2.38;;;;;;;;;;5050073;28;20441;-69
2022/06/18 05:24:32;;;;;;;2.30;2.10;;;;;;;;;;5049377;28;20433;-68
2022/06/18 05:27:00;;;;;;;3.10;2.40;;;;;;;;;;5038215;28;20928;-67
2022/06/18 05:29:27;;;;;;;2.70;2.00;;;;;;;;;;5046392;28;20501;-65
2022/06/18 05:31:54;;;;;;;2.95;2.20;;;;;;;;;;5054109;28;20942;-69
2022/06/18 05:34:21;;;;;;;2.90;2.10;;;;;;;;;;5049213;28;20428;-70
2022/06/18 05:36:49;;;;;;;3.10;2.30;;;;;;;;;;5050159;28;20421;-70
2022/06/18 05:39:18;;;;;;;2.87;2.50;;;;;;;;;;5055247;28;20789;-68
2022/06/18 05:41:46;;;;;;;2.20;1.90;;;;;;;;;;5058083;28;20421;-68
2022/06/18 05:44:13;;;;;;;3.92;2.10;;;;;;;;;;5082310;28;20472;-66
2022/06/18 05:46:40;;;;;;;2.30;2.10;;;;;;;;;;5075890;28;20409;-68
2022/06/18 05:49:07;;;;;;;3.47;2.50;;;;;;;;;;5069954;28;20967;-68
2022/06/18 05:51:34;;;;;;;2.40;2.20;;;;;;;;;;5046753;28;20445;-70
2022/06/18 05:54:01;;;;;;;2.10;1.90;;;;;;;;;;5043038;28;20440;-68
2022/06/18 05:56:30;;;;;;;2.65;2.00;;;;;;;;;;5037972;28;20432;-69
2022/06/18 05:58:58;;;;;;;2.90;2.05;;;;;;;;;;5045467;28;20447;-68
2022/06/18 06:01:25;;;;;;;2.92;1.80;;;;;;;;;;5049274;28;20433;-70
2022/06/18 06:03:52;;;;;;;2.20;1.80;;;;;;;;;;5047063;28;20859;-72
2022/06/18 06:06:19;;;;;;;2.20;1.83;;;;;;;;;;5050444;28;20431;-71
2022/06/18 06:08:46;;;;;;;3.15;2.25;;;;;;;;;;5056555;28;20440;-68
2022/06/18 06:11:32;;;;;;;3.30;2.50;;;;;;;;;;5051749;28;20453;-68
2022/06/18 06:14:01;;;;;;;2.83;1.90;;;;;;;;;;5056575;28;20946;-67
2022/06/18 06:16:28;;;;;;;2.40;2.00;;;;;;;;;;5058844;28;20449;-66
2022/06/18 06:18:55;;;;;;;3.20;2.10;;;;;;;;;;5053120;28;20439;-68
2022/06/18 06:21:22;;;;;;;3.22;1.98;;;;;;;;;;5060003;28;20826;-68
2022/06/18 06:23:50;;;;;;;2.60;2.10;;;;;;;;;;5044499;28;20465;-67
2022/06/18 06:26:19;;;;;;;2.72;2.10;;;;;;;;;;5046229;28;20439;-65
2022/06/18 06:28:46;;;;;;;2.20;2.00;;;;;;;;;;5048442;28;20435;-68
2022/06/18 06:31:14;;;;;;;2.35;2.10;;;;;;;;;;5059705;28;20501;-67
2022/06/18 06:33:41;;;;;;;2.70;2.10;;;;;;;;;;5049455;28;20427;-67
2022/06/18 06:36:10;;;;;;;3.72;2.10;;;;;;;;;;5053272;28;20439;-68
2022/06/18 06:38:37;;;;;;;2.33;2.13;;;;;;;;;;5050122;28;20433;-69
2022/06/18 06:41:05;;;;;;;2.00;1.80;;;;;;;;;;5047444;28;20440;-68
2022/06/18 06:43:32;;;;;;;4.22;2.20;;;;;;;;;;5053243;28;20439;-66
2022/06/18 06:46:00;;;;;;;2.97;2.03;;;;;;;;;;5046165;28;20524;-66
2022/06/18 06:48:28;;;;;;;3.03;2.28;;;;;;;;;;5056807;28;20423;-68
2022/06/18 06:50:55;;;;;;;2.40;2.20;;;;;;;;;;5046089;28;21022;-67
2022/06/18 06:53:22;;;;;;;2.50;1.90;;;;;;;;;;5037602;28;20805;-69
2022/06/18 06:58:34;;;;;;;2.40;2.00;;;;;;;;;;5045261;28;20436;-68
2022/06/18 07:01:02;;;;;;;1.90;1.70;;;;;;;;;;5054941;28;20417;-67
2022/06/18 07:03:32;;;;;;;2.70;2.10;;;;;;;;;;5051886;28;20543;-65
2022/06/18 07:05:59;;;;;;;2.78;1.85;;;;;;;;;;5048566;28;20478;-74
2022/06/18 07:08:27;;;;;;;3.47;1.80;;;;;;;;;;5048554;28;20429;-73
2022/06/18 07:10:54;;;;;;;3.15;2.10;;;;;;;;;;5042622;28;20435;-75
2022/06/18 07:13:21;;;;;;;3.28;2.30;;;;;;;;;;5038556;28;20911;-72
2022/06/18 07:15:50;;;;;;;3.60;2.00;;;;;;;;;;5036878;28;21004;-72
2022/06/18 07:18:19;;;;;;;2.60;1.90;;;;;;;;;;5041066;28;21082;-74
2022/06/18 07:20:47;;;;;;;3.72;2.10;;;;;;;;;;5036580;28;20598;-74
2022/06/18 07:23:15;;;;;;;2.33;1.88;;;;;;;;;;5041213;28;20519;-73
2022/06/18 07:25:42;;;;;;;3.35;1.85;;;;;;;;;;5041538;28;21126;-74
2022/06/18 07:28:09;;;;;;;3.10;1.90;;;;;;;;;;5042887;28;20985;-73
2022/06/18 07:30:36;;;;;;;5.18;2.00;;;;;;;;;;5045884;28;20907;-74
2022/06/18 07:33:03;;;;;;;2.67;1.88;;;;;;;;;;5054454;28;20429;-71
2022/06/18 07:35:31;;;;;;;2.80;2.00;;;;;;;;;;5045307;28;20433;-76
2022/06/18 07:38:00;;;;;;;2.30;2.10;;;;;;;;;;5046634;28;20425;-75
2022/06/18 07:40:31;;;;;;;5.30;2.15;;;;;;;;;;5043918;28;20449;-76
2022/06/18 07:42:58;;;;;;;4.18;2.00;;;;;;;;;;5055910;28;20948;-75
2022/06/18 07:45:26;;;;;;;2.25;1.80;;;;;;;;;;5052196;28;20437;-75
2022/06/18 07:47:54;;;;;;;2.42;1.85;;;;;;;;;;5042914;28;20460;-75
2022/06/18 07:50:21;;;;;;;2.80;2.00;;;;;;;;;;5050627;28;20437;-76
2022/06/18 07:52:49;;;;;;;3.13;1.80;;;;;;;;;;5059887;28;20787;-77
2022/06/18 07:55:18;;;;;;;3.05;2.10;;;;;;;;;;5071498;28;20428;-75
2022/06/18 07:57:46;;;;;;;2.35;1.80;;;;;;;;;;5070033;28;20472;-75
2022/06/18 08:00:16;;;;;;;3.25;2.00;;;;;;;;;;5061750;28;20417;-76
2022/06/18 08:02:43;;;;;;;2.47;1.95;;;;;;;;;;5056492;28;20930;-76
2022/06/18 08:05:12;;;;;;;3.42;2.10;;;;;;;;;;5060439;28;20911;-76
2022/06/18 08:07:39;;;;;;;3.35;2.00;;;;;;;;;;5052465;28;20511;-75
2022/06/18 08:10:07;;;;;;;3.10;2.00;;;;;;;;;;5054605;28;20481;-76
2022/06/18 08:12:37;;;;;;;2.00;1.80;;;;;;;;;;5055747;28;20432;-77
2022/06/18 08:15:04;;;;;;;1.80;1.70;;;;;;;;;;5070413;28;20442;-77
2022/06/18 08:17:31;;;;;;;2.40;2.20;;;;;;;;;;5053329;28;20420;-77
2022/06/18 08:19:58;;;;;;;1.92;1.83;;;;;;;;;;5059522;28;20442;-76
2022/06/18 08:22:25;;;;;;;2.50;2.30;;;;;;;;;;5055841;28;20795;-75
2022/06/18 08:24:53;;;;;;;2.60;2.10;;;;;;;;;;5056070;28;20611;-77
2022/06/18 08:27:21;;;;;;;1.90;1.80;;;;;;;;;;5062942;28;20431;-77
2022/06/18 08:29:50;;;;;;;3.40;2.03;;;;;;;;;;5056944;28;20428;-76
2022/06/18 08:32:17;;;;;;;2.75;1.90;;;;;;;;;;5052351;28;20896;-75
2022/06/18 08:34:44;;;;;;;2.72;1.80;;;;;;;;;;5050748;28;21010;-75
2022/06/18 08:37:11;;;;;;;2.33;1.88;;;;;;;;;;5058089;28;20444;-77
2022/06/18 08:39:39;;;;;;;2.95;1.85;;;;;;;;;;5067241;28;20486;-76
2022/06/18 08:42:12;;;;;;;2.25;1.88;;;;;;;;;;5053508;28;20526;-77
2022/06/18 08:44:53;;;;;;;3.00;1.80;;;;;;;;;;5065627;28;20420;-77
2022/06/18 08:47:29;;;;;;;4.83;1.90;;;;;;;;;;5041354;28;20425;-77
2022/06/18 08:50:00;;;;;;;4.30;2.10;;;;;;;;;;5045358;28;20465;-77
2022/06/18 08:52:39;;;;;;;2.70;2.00;;;;;;;;;;5054406;28;20444;-77
2022/06/18 08:55:13;;;;;;;4.43;2.20;;;;;;;;;;5056839;28;20413;-75
2022/06/18 08:57:44;;;;;;;2.70;2.20;;;;;;;;;;5050733;28;20878;-76
2022/06/18 09:00:13;;;;;;;2.80;2.00;;;;;;;;;;5060043;28;20425;-76
2022/06/18 09:02:45;;;;;;;3.05;2.38;;;;;;;;;;5051193;28;20425;-74
2022/06/18 09:05:18;;;;;;;3.50;2.50;;;;;;;;;;5055895;28;20439;-75
2022/06/18 09:08:03;;;;;;;2.60;2.40;;;;;;;;;;5058727;28;20439;-75
2022/06/18 09:10:35;;;;;;;3.70;2.30;;;;;;;;;;5031596;28;20425;-76
2022/06/18 09:13:03;;;;;;;5.17;2.57;;;;;;;;;;5052342;28;20447;-75
2022/06/18 09:15:34;;;;;;;2.50;2.30;;;;;;;;;;5062319;28;20469;-74
2022/06/18 09:18:04;;;;;;;3.60;2.30;;;;;;;;;;5055028;28;20521;-75
2022/06/18 09:20:33;;;;;;;2.60;2.40;;;;;;;;;;5051615;28;20445;-75
2022/06/18 09:23:04;;;;;;;3.95;2.40;;;;;;;;;;5052222;28;20413;-75
2022/06/18 09:25:34;;;;;;;4.13;2.60;;;;;;;;;;5057023;28;20530;-75
2022/06/18 09:28:04;;;;;;;3.90;2.30;;;;;;;;;;5051339;28;20429;-75
2022/06/18 09:30:35;;;;;;;5.00;2.20;;;;;;;;;;5062185;28;20454;-76
2022/06/18 09:33:04;;;;;;;4.32;2.40;;;;;;;;;;5037812;28;20500;-76
2022/06/18 09:35:33;;;;;;;3.83;2.30;;;;;;;;;;5047307;28;20429;-74
2022/06/18 09:38:03;;;;;;;2.40;1.95;;;;;;;;;;5054000;28;20433;-73
2022/06/18 09:40:32;;;;;;;4.30;2.20;;;;;;;;;;5051705;28;20435;-75
2022/06/18 09:43:01;;;;;;;4.65;2.45;;;;;;;;;;5054036;28;20681;-75
2022/06/18 09:45:30;;;;;;;3.35;2.20;;;;;;;;;;5063826;28;20427;-76
2022/06/18 09:47:57;;;;;;;2.27;2.00;;;;;;;;;;5067021;28;20429;-74
2022/06/18 09:50:29;;;;;;;4.57;2.10;;;;;;;;;;5073018;28;20405;-75
2022/06/18 09:52:59;;;;;;;4.03;2.10;;;;;;;;;;5082387;28;20417;-74
2022/06/18 09:55:29;;;;;;;3.80;2.30;;;;;;;;;;5053935;28;20433;-76
2022/06/18 09:57:58;;;;;;;4.47;2.30;;;;;;;;;;5069433;22;20494;-73
2022/06/18 10:00:28;;;;;;;3.13;2.10;;;;;;;;;;5049466;28;20458;-74
2022/06/18 10:02:56;;;;;;;3.30;2.17;;;;;;;;;;5057494;28;20763;-73
2022/06/18 10:08:12;;;;;;;3.17;2.03;;;;;;;;;;5062091;28;20426;-74
2022/06/18 10:10:43;;;;;;;4.45;2.10;;;;;;;;;;5074619;28;20513;-74
2022/06/18 10:13:14;;;;;;;4.13;2.47;;;;;;;;;;5078273;28;20421;-73
2022/06/18 10:15:41;;;;;;;3.47;2.38;;;;;;;;;;5084963;28;20500;-74
2022/06/18 10:18:16;;;;;;;3.37;2.27;;;;;;;;;;5074563;28;20407;-73
2022/06/18 10:20:46;;;;;;;3.88;2.20;;;;;;;;;;5074760;28;20435;-73
2022/06/18 10:23:24;;;;;;;3.53;2.15;;;;;;;;;;5081426;28;20477;-74
2022/06/18 10:25:54;;;;;;;4.22;2.10;;;;;;;;;;5076596;28;20420;-73
2022/06/18 10:28:24;;;;;;;4.10;2.30;;;;;;;;;;5082256;28;20458;-73
2022/06/18 10:30:55;;;;;;;5.55;2.17;;;;;;;;;;5084160;28;20440;-73
2022/06/18 10:33:28;;;;;;;5.50;2.20;;;;;;;;;;5080822;28;20456;-74
2022/06/18 10:36:00;;;;;;;3.42;2.10;;;;;;;;;;5069893;28;20407;-73
2022/06/18 10:38:37;;;;;;;4.95;2.30;;;;;;;;;;5064722;28;20482;-73
2022/06/18 10:41:09;;;;;;;2.50;2.30;;;;;;;;;;5075307;28;20924;-73
2022/06/18 10:43:45;;;;;;;4.88;2.50;;;;;;;;;;5068837;28;20514;-69
2022/06/18 10:46:14;;;;;;;4.43;2.40;;;;;;;;;;5061733;28;20424;-74
2022/06/18 10:48:45;;;;;;;5.57;2.42;;;;;;;;;;5070691;28;20916;-74
2022/06/18 10:51:16;;;;;;;4.00;2.10;;;;;;;;;;5070822;28;20558;-74
2022/06/18 10:53:49;;;;;;;3.25;2.30;;;;;;;;;;5075740;28;20446;-73
2022/06/18 10:56:17;;;;;;;4.20;2.50;;;;;;;;;;5064986;28;20517;-72
2022/06/18 10:58:48;;;;;;;4.20;2.20;;;;;;;;;;5076571;28;20473;-73
2022/06/18 11:01:15;;;;;;;5.00;2.57;;;;;;;;;;5062268;28;20922;-72
2022/06/18 11:03:53;;;;;;;5.40;2.50;;;;;;;;;;5067135;28;20410;-72
2022/06/18 11:06:20;;;;;;;3.85;2.40;;;;;;;;;;5065355;28;20412;-73
2022/06/18 11:08:52;;;;;;;3.85;2.30;;;;;;;;;;5065213;28;20456;-72
2022/06/18 11:11:22;;;;;;;3.55;2.10;;;;;;;;;;5062693;28;20431;-72
2022/06/18 11:13:50;;;;;;;4.50;2.50;;;;;;;;;;5071367;28;20431;-73
2022/06/18 11:16:18;;;;;;;3.75;2.30;;;;;;;;;;5070072;28;20437;-72
2022/06/18 11:18:47;;;;;;;3.23;2.20;;;;;;;;;;5083595;28;20421;-73
2022/06/18 11:21:16;;;;;;;3.38;2.55;;;;;;;;;;5071777;28;20452;-72
2022/06/18 11:23:46;;;;;;;3.53;2.10;;;;;;;;;;5082377;28;20424;-72
2022/06/18 11:26:22;;;;;;;2.40;2.15;;;;;;;;;;5068374;28;20424;-72
2022/06/18 11:28:50;;;;;;;4.63;2.20;;;;;;;;;;5073132;28;20937;-72
2022/06/18 11:31:22;;;;;;;3.35;2.22;;;;;;;;;;5075920;28;20457;-71
2022/06/18 11:33:54;;;;;;;4.13;2.40;;;;;;;;;;5069545;28;20431;-72
2022/06/18 11:36:32;;;;;;;4.22;2.30;;;;;;;;;;5080621;28;20489;-71
2022/06/18 11:39:01;;;;;;;4.45;2.33;;;;;;;;;;5081574;28;20421;-71
2022/06/18 11:41:33;;;;;;;3.57;2.20;;;;;;;;;;5084840;28;20445;-73
2022/06/18 11:44:04;;;;;;;6.65;2.50;;;;;;;;;;5069836;28;20462;-72
2022/06/18 11:46:33;;;;;;;3.25;2.20;;;;;;;;;;5079306;28;20783;-72
2022/06/18 11:49:03;;;;;;;2.80;2.13;;;;;;;;;;5071932;28;20430;-70
2022/06/18 11:51:38;;;;;;;3.88;2.20;;;;;;;;;;5069359;28;20427;-71
2022/06/18 11:54:09;;;;;;;4.53;2.55;;;;;;;;;;5058665;28;20430;-71
2022/06/18 11:56:41;;;;;;;4.40;2.20;;;;;;;;;;5062835;28;20442;-70
2022/06/18 11:59:15;;;;;;;4.75;2.25;;;;;;;;;;5068712;28;20868;-71
2022/06/18 12:01:44;;;;;;;5.10;2.78;;;;;;;;;;5073572;28;20450;-72
2022/06/18 12:04:15;;;;;;;3.45;2.20;;;;;;;;;;5068993;28;20446;-72
2022/06/18 12:06:43;;;;;;;4.10;2.10;;;;;;;;;;5067585;28;20874;-73
2022/06/18 12:09:12;;;;;;;3.65;2.13;;;;;;;;;;5062362;28;20438;-72
2022/06/18 12:11:47;;;;;;;4.35;2.25;;;;;;;;;;5069048;28;20436;-72
2022/06/18 12:14:16;;;;;;;3.75;2.28;;;;;;;;;;5065815;28;20432;-72
2022/06/18 12:16:47;;;;;;;3.47;2.10;;;;;;;;;;5068709;28;20422;-72
2022/06/18 12:19:19;;;;;;;4.72;2.35;;;;;;;;;;5066447;28;20422;-72
2022/06/18 12:21:48;;;;;;;5.28;2.42;;;;;;;;;;5072927;28;20425;-74
2022/06/18 12:24:20;;;;;;;4.93;2.73;;;;;;;;;;5068524;28;20443;-70
2022/06/18 12:26:53;;;;;;;4.32;2.20;;;;;;;;;;5072256;28;20427;-72
2022/06/18 12:29:27;;;;;;;4.30;2.40;;;;;;;;;;5077554;28;20510;-72
2022/06/18 12:31:59;;;;;;;2.72;1.92;;;;;;;;;;5087750;28;20417;-72
2022/06/18 12:34:29;;;;;;;4.32;2.35;;;;;;;;;;5073768;28;20419;-72
2022/06/18 12:36:59;;;;;;;3.35;2.40;;;;;;;;;;5072211;28;20462;-72
2022/06/18 12:39:30;;;;;;;3.67;2.25;;;;;;;;;;5079469;28;20421;-72
2022/06/18 12:42:02;;;;;;;4.68;2.30;;;;;;;;;;5080276;28;20774;-72
2022/06/18 12:44:35;;;;;;;4.43;2.30;;;;;;;;;;5083634;28;20497;-72
2022/06/18 12:47:05;;;;;;;3.97;2.20;;;;;;;;;;5079382;28;20420;-74
2022/06/18 12:49:38;;;;;;;4.18;2.10;;;;;;;;;;5076090;28;20453;-72
2022/06/18 12:52:09;;;;;;;4.20;2.35;;;;;;;;;;5076067;28;20439;-73
2022/06/18 12:54:42;;;;;;;3.28;2.15;;;;;;;;;;5073274;28;20884;-73
2022/06/18 12:57:17;;;;;;;3.58;2.40;;;;;;;;;;5077209;28;20429;-72
2022/06/18 12:59:46;;;;;;;4.28;2.60;;;;;;;;;;5080468;28;20459;-73
2022/06/18 13:02:16;;;;;;;3.30;2.20;;;;;;;;;;5081788;28;20416;-72
2022/06/18 13:04:58;;;;;;;4.55;2.30;;;;;;;;;;5081718;28;20884;-73
2022/06/18 13:07:30;;;;;;;6.13;2.60;;;;;;;;;;5085886;28;20453;-72
2022/06/18 13:10:03;;;;;;;4.80;2.30;;;;;;;;;;5082966;28;20455;-73
2022/06/18 13:12:47;;;;;;;5.10;2.30;;;;;;;;;;5079191;28;20503;-73
2022/06/18 13:15:27;;;;;;;4.72;2.33;;;;;;;;;;5082960;28;20410;-73
2022/06/18 13:17:57;;;;;;;4.18;2.28;;;;;;;;;;5074715;28;20416;-71
2022/06/18 13:20:27;;;;;;;5.47;2.60;;;;;;;;;;5073408;28;20431;-73
2022/06/18 13:22:55;;;;;;;6.10;2.20;;;;;;;;;;5077608;28;20435;-73
2022/06/18 13:28:16;;;;;;;3.65;2.00;;;;;;;;;;5070433;28;20437;-73
2022/06/18 13:30:57;;;;;;;4.17;2.20;;;;;;;;;;5078572;28;20398;-71
2022/06/18 13:33:28;;;;;;;5.78;2.40;;;;;;;;;;5067522;28;20988;-73
2022/06/18 13:36:00;;;;;;;4.80;3.03;;;;;;;;;;5072353;28;20463;-72
2022/06/18 13:38:31;;;;;;;5.55;2.50;;;;;;;;;;5075747;28;20421;-72
2022/06/18 13:41:00;;;;;;;6.40;2.60;;;;;;;;;;5072251;28;20431;-71
2022/06/18 13:43:31;;;;;;;3.90;2.60;;;;;;;;;;5078262;28;20820;-71
2022/06/18 13:46:01;;;;;;;7.20;2.80;;;;;;;;;;5075857;28;20420;-71
2022/06/18 13:48:39;;;;;;;6.00;2.55;;;;;;;;;;5072914;28;21148;-71
2022/06/18 13:51:06;;;;;;;6.05;2.30;;;;;;;;;;5074392;28;20415;-71
2022/06/18 13:53:34;;;;;;;4.30;2.30;;;;;;;;;;5066123;28;20510;-71
2022/06/18 13:56:02;;;;;;;5.50;2.60;;;;;;;;;;5064268;28;20894;-73
2022/06/18 13:58:32;;;;;;;4.55;2.17;;;;;;;;;;5072578;28;20437;-73
2022/06/18 14:01:09;;;;;;;4.80;2.28;;;;;;;;;;5076225;28;20446;-73
2022/06/18 14:03:38;;;;;;;4.43;2.40;;;;;;;;;;5070454;28;20994;-73
2022/06/18 14:06:07;;;;;;;4.10;2.20;;;;;;;;;;5087982;28;20414;-71
2022/06/18 14:08:35;;;;;;;4.45;2.30;;;;;;;;;;5072599;28;20920;-72
2022/06/18 14:11:05;;;;;;;4.90;2.30;;;;;;;;;;5075068;28;20407;-73
2022/06/18 14:13:45;;;;;;;5.53;2.60;;;;;;;;;;5070098;28;20461;-72
2022/06/18 14:16:12;;;;;;;3.83;2.50;;;;;;;;;;5076884;28;20432;-73
2022/06/18 14:18:40;;;;;;;5.28;2.30;;;;;;;;;;5084794;28;20422;-73
2022/06/18 14:21:08;;;;;;;3.35;2.40;;;;;;;;;;5062510;28;20417;-73
2022/06/18 14:23:38;;;;;;;4.10;2.20;;;;;;;;;;5069548;28;21854;-72
2022/06/18 14:26:07;;;;;;;3.22;2.50;;;;;;;;;;5076772;28;20426;-73
2022/06/18 14:28:37;;;;;;;4.88;2.28;;;;;;;;;;5074061;28;20434;-73
2022/06/18 14:31:22;;;;;;;5.82;2.40;;;;;;;;;;5067544;28;20430;-73
2022/06/18 14:33:54;;;;;;;6.28;2.60;;;;;;;;;;5077892;28;20414;-74
2022/06/18 14:36:22;;;;;;;4.97;2.50;;;;;;;;;;5054671;28;20766;-74
2022/06/18 14:38:51;;;;;;;4.80;2.53;;;;;;;;;;5067032;28;20525;-72
2022/06/18 14:56:56;;;;;;;4.20;2.33;;;;;;;;;;5062633;28;20444;-72
2022/06/18 14:59:34;;;;;;;3.33;2.20;;;;;;;;;;5073250;28;20435;-73
2022/06/18 15:02:03;;;;;;;4.22;2.33;;;;;;;;;;5074882;28;20808;-73
2022/06/18 15:04:34;;;;;;;4.20;2.10;;;;;;;;;;5055128;28;20431;-73
2022/06/18 15:07:04;;;;;;;3.38;2.10;;;;;;;;;;5066942;28;20556;-75
2022/06/18 15:09:32;;;;;;;4.18;2.50;;;;;;;;;;5065003;28;21138;-75
2022/06/18 15:12:03;;;;;;;3.95;2.20;;;;;;;;;;5073049;28;20421;-74
2022/06/18 15:14:31;;;;;;;5.40;2.40;;;;;;;;;;5067011;28;20963;-74
2022/06/18 15:19:42;;;;;;;4.40;2.50;;;;;;;;;;5066946;28;20499;-74
2022/06/18 15:22:28;;;;;;;3.88;2.30;;;;;;;;;;5062580;28;20428;-74
2022/06/18 15:27:45;;;;;;;6.27;2.57;;;;;;;;;;5057451;28;20574;-72
2022/06/18 15:30:28;;;;;;;3.90;2.20;;;;;;;;;;5053803;28;20450;-73
2022/06/18 15:32:56;;;;;;;4.43;2.30;;;;;;;;;;5061203;28;20443;-74